Nelsonville, Wisconsin
Current Conditions -  °F | °C
As of 2:15 PM on Friday 19 Dec 2014 (Local Time) from KSTE Reporting Station
Overcast Overcast  
Wind Chill: -8°   Ceiling: 2400
Heat Index: -4°   Visibility: 10mi
Dew Point: -9°   Wind: 7mph
Humidity: 71%   Direction: 230°SW
Pressure: 30.25"   Gusts: NA
Location:  44.49°N, 89.31°W
Report Text: KSTE 192015Z AUTO 23006KT 10SM OVC024 M04/M09 A3025 RMK AO2 T10401086
Loading
Personal Weather Stations






























Interactive Weather Map New forecast layout! Learn more

10-Day Weather Forecast

Advertisements
Track Severe Weather on mobile